Time;durP1;ratioP1;P1;durP2;ratioP2;P2;SDS_P1;SDS_P2;PMS_P1;PMS_P2;Temp;Humidity;BMP_temperature;BMP_pressure;BME280_temperature;BME280_humidity;BME280_pressure;Samples;Min_cycle;Max_cycle;Signal;HPM_P1;HPM_P2
2021/04/07 00:01:07;;;;;;;6.38;2.50;;;;;;;-141.50;100.00;63355.56;5061465;28;20089;-74
2021/04/07 00:03:34;;;;;;;7.35;2.40;;;;;;;-141.50;100.00;63355.56;5049943;28;20049;-75
2021/04/07 00:06:00;;;;;;;7.18;2.33;;;;;;;-141.50;100.00;63355.56;5050232;28;20052;-75
2021/04/07 00:08:26;;;;;;;4.20;2.25;;;;;;;-141.50;100.00;63355.56;5049599;28;20045;-75
2021/04/07 00:10:54;;;;;;;10.18;2.55;;;;;;;-141.50;100.00;63355.56;5048540;28;20439;-75
2021/04/07 00:13:21;;;;;;;8.73;2.70;;;;;;;-141.50;100.00;63355.56;5031237;28;20287;-75
2021/04/07 00:15:48;;;;;;;4.82;2.45;;;;;;;-141.50;100.00;63355.56;5048460;28;20040;-75
2021/04/07 00:18:14;;;;;;;7.32;2.78;;;;;;;-141.50;100.00;63355.56;5048112;28;20481;-75
2021/04/07 00:20:40;;;;;;;8.45;2.42;;;;;;;-141.50;100.00;63355.56;5050963;28;20045;-75
2021/04/07 00:23:07;;;;;;;6.63;2.78;;;;;;;-141.50;100.00;63355.56;5048685;28;20060;-75
2021/04/07 00:25:34;;;;;;;5.28;2.38;;;;;;;-141.50;100.00;63355.56;5050566;28;20075;-75
2021/04/07 00:28:04;;;;;;;9.80;2.63;;;;;;;-141.50;100.00;63355.56;5050024;28;20045;-75
2021/04/07 00:30:33;;;;;;;6.63;2.63;;;;;;;-141.50;100.00;63355.56;5032091;28;20045;-75
2021/04/07 00:33:00;;;;;;;6.57;2.95;;;;;;;-141.50;100.00;63355.56;5048555;28;20062;-75
2021/04/07 00:35:29;;;;;;;6.70;2.38;;;;;;;-141.50;100.00;63355.56;5048637;28;20040;-75
2021/04/07 00:37:56;;;;;;;5.47;2.60;;;;;;;-141.50;100.00;63355.56;5049343;28;20045;-74
2021/04/07 00:40:22;;;;;;;5.65;2.47;;;;;;;-141.50;100.00;63355.56;5084943;23;20047;-78
2021/04/07 00:42:51;;;;;;;6.15;2.80;;;;;;;-141.50;100.00;63355.56;5095212;28;20498;-77
2021/04/07 00:45:18;;;;;;;7.57;2.85;;;;;;;-141.50;100.00;63355.56;5093642;28;20039;-77
2021/04/07 00:47:47;;;;;;;8.10;2.80;;;;;;;-141.50;100.00;63355.56;5111688;28;20048;-78
2021/04/07 00:50:14;;;;;;;5.72;2.58;;;;;;;-141.50;100.00;63355.56;5111685;28;20048;-77
2021/04/07 00:52:40;;;;;;;5.03;2.47;;;;;;;-141.50;100.00;63355.56;5093118;28;20047;-79
2021/04/07 00:55:10;;;;;;;7.68;2.78;;;;;;;-141.50;100.00;63355.56;5112149;28;20046;-79
2021/04/07 00:57:40;;;;;;;5.43;2.70;;;;;;;-141.50;100.00;63355.56;5113036;28;20123;-77
2021/04/07 01:00:07;;;;;;;5.43;2.72;;;;;;;-141.50;100.00;63355.56;5094065;28;20039;-78
2021/04/07 01:02:34;;;;;;;7.07;3.08;;;;;;;-141.50;100.00;63355.56;5111853;28;20040;-77
2021/04/07 01:05:01;;;;;;;7.82;2.63;;;;;;;-141.50;100.00;63355.56;5110814;28;20513;-77
2021/04/07 01:07:27;;;;;;;5.10;2.55;;;;;;;-141.50;100.00;63355.56;5113569;28;20076;-77
2021/04/07 01:09:53;;;;;;;5.32;2.53;;;;;;;-141.50;100.00;63355.56;5115361;28;20050;-77
2021/04/07 01:12:19;;;;;;;5.07;2.35;;;;;;;-141.50;100.00;63355.56;5097156;28;20052;-77
2021/04/07 01:14:45;;;;;;;7.28;2.35;;;;;;;-141.50;100.00;63355.56;5096911;28;20051;-77
2021/04/07 01:17:13;;;;;;;5.35;2.25;;;;;;;-141.50;100.00;63355.56;5114566;28;20041;-77
2021/04/07 01:19:41;;;;;;;9.27;2.08;;;;;;;-141.50;100.00;63355.56;5115560;28;20039;-77
2021/04/07 01:22:07;;;;;;;4.82;2.30;;;;;;;-141.50;100.00;63355.56;5114537;28;20055;-76
2021/04/07 01:24:35;;;;;;;11.63;2.40;;;;;;;-141.50;100.00;63355.56;5115266;28;20043;-77
2021/04/07 01:27:01;;;;;;;4.95;2.08;;;;;;;-141.50;100.00;63355.56;5097751;28;20047;-77
2021/04/07 01:29:28;;;;;;;5.05;1.98;;;;;;;-141.50;100.00;63355.56;5115584;28;20043;-78
2021/04/07 01:31:56;;;;;;;6.57;2.05;;;;;;;-141.50;100.00;63355.56;5096653;28;20039;-78
2021/04/07 01:34:24;;;;;;;8.35;2.30;;;;;;;-141.50;100.00;63355.56;5114634;28;20039;-78
2021/04/07 01:36:51;;;;;;;8.18;2.67;;;;;;;-141.50;100.00;63355.56;5097137;28;20051;-77
2021/04/07 01:39:18;;;;;;;6.95;2.40;;;;;;;-141.50;100.00;63355.56;5115161;28;20085;-78
2021/04/07 01:41:45;;;;;;;5.85;2.35;;;;;;;-141.50;100.00;63355.56;5115438;28;20047;-77
2021/04/07 01:44:16;;;;;;;7.68;2.47;;;;;;;-141.50;100.00;63355.56;5115328;28;20628;-76
2021/04/07 01:46:44;;;;;;;6.65;2.45;;;;;;;-141.50;100.00;63355.56;5080771;28;20054;-76
2021/04/07 01:49:11;;;;;;;9.43;2.83;;;;;;;-141.50;100.00;63355.56;5097202;28;20059;-76
2021/04/07 01:51:37;;;;;;;5.00;2.28;;;;;;;-141.50;100.00;63355.56;5097098;28;20047;-76
2021/04/07 01:54:05;;;;;;;9.65;2.80;;;;;;;-141.50;100.00;63355.56;5079703;28;20063;-77
2021/04/07 01:56:44;;;;;;;6.50;2.85;;;;;;;-141.50;100.00;63355.56;5096987;28;20044;-77
2021/04/07 01:59:10;;;;;;;10.43;2.70;;;;;;;-141.50;100.00;63355.56;5096745;28;20040;-77
2021/04/07 02:01:36;;;;;;;8.77;2.70;;;;;;;-141.50;100.00;63355.56;5097428;28;20054;-77
2021/04/07 02:04:03;;;;;;;7.50;2.90;;;;;;;-141.50;100.00;63355.56;5115374;28;20040;-77
2021/04/07 02:06:30;;;;;;;10.35;2.80;;;;;;;-141.50;100.00;63355.56;5114006;28;20435;-77
2021/04/07 02:08:57;;;;;;;6.75;2.83;;;;;;;-141.50;100.00;63355.56;5078746;28;20043;-78
2021/04/07 02:11:23;;;;;;;5.20;2.35;;;;;;;-141.50;100.00;63355.56;5096244;28;20047;-77
2021/04/07 02:13:50;;;;;;;8.88;2.40;;;;;;;-141.50;100.00;63355.56;5114554;28;20128;-77
2021/04/07 02:16:16;;;;;;;7.93;2.83;;;;;;;-141.50;100.00;63355.56;5095772;28;20100;-77
2021/04/07 02:18:43;;;;;;;8.13;2.78;;;;;;;-141.50;100.00;63355.56;5095846;28;20471;-77
2021/04/07 02:21:10;;;;;;;5.53;2.60;;;;;;;-141.50;100.00;63355.56;5113936;28;20044;-76
2021/04/07 02:23:37;;;;;;;7.97;2.83;;;;;;;-141.50;100.00;63355.56;5095612;28;20048;-77
2021/04/07 02:26:05;;;;;;;9.35;2.60;;;;;;;-141.50;100.00;63355.56;5078499;28;20039;-77
2021/04/07 02:28:32;;;;;;;6.70;2.72;;;;;;;-141.50;100.00;63355.56;5095818;28;20036;-77
2021/04/07 02:30:58;;;;;;;7.13;2.72;;;;;;;-141.50;100.00;63355.56;5095730;28;20043;-77
2021/04/07 02:33:25;;;;;;;4.85;2.50;;;;;;;-141.50;100.00;63355.56;5095175;28;20069;-76
2021/04/07 02:35:51;;;;;;;8.32;2.58;;;;;;;-141.50;100.00;63355.56;5078830;28;20092;-77
2021/04/07 02:38:17;;;;;;;7.43;2.78;;;;;;;-141.50;100.00;63355.56;5096070;28;20044;-77
2021/04/07 02:40:44;;;;;;;4.80;2.30;;;;;;;-141.50;100.00;63355.56;5114986;28;20039;-77
2021/04/07 02:43:10;;;;;;;5.57;2.60;;;;;;;-141.50;100.00;63355.56;5116579;28;20120;-78
2021/04/07 02:45:36;;;;;;;6.50;2.45;;;;;;;-141.50;100.00;63355.56;5115444;28;20051;-78
2021/04/07 02:48:02;;;;;;;7.80;2.60;;;;;;;-141.50;100.00;63355.56;5114261;28;20048;-78
2021/04/07 02:50:28;;;;;;;6.55;2.60;;;;;;;-141.50;100.00;63355.56;5077918;28;20094;-78
2021/04/07 02:52:54;;;;;;;7.70;2.80;;;;;;;-141.50;100.00;63355.56;5095205;28;20048;-77
2021/04/07 02:55:20;;;;;;;12.32;2.95;;;;;;;-141.50;100.00;63355.56;5113073;28;20391;-78
2021/04/07 02:57:47;;;;;;;7.32;2.88;;;;;;;-141.50;100.00;63355.56;5113796;28;20048;-78
2021/04/07 03:00:14;;;;;;;7.57;3.03;;;;;;;-141.50;100.00;63355.56;5119144;28;20035;-78
2021/04/07 03:02:40;;;;;;;11.07;2.90;;;;;;;-141.50;100.00;63355.56;5119590;28;20051;-78
2021/04/07 03:05:07;;;;;;;9.40;3.30;;;;;;;-141.50;100.00;63355.56;5118837;28;20069;-78
2021/04/07 03:07:37;;;;;;;6.50;3.50;;;;;;;-141.50;100.00;63355.56;5114051;28;20047;-78
2021/04/07 03:10:04;;;;;;;8.20;3.90;;;;;;;-141.50;100.00;63355.56;5094684;28;20048;-78
2021/04/07 03:12:33;;;;;;;11.25;3.75;;;;;;;-141.50;100.00;63355.56;5113593;28;20122;-78
2021/04/07 03:14:59;;;;;;;8.30;3.63;;;;;;;-141.50;100.00;63355.56;5112856;28;20100;-78
2021/04/07 03:17:26;;;;;;;8.63;3.83;;;;;;;-141.50;100.00;63355.56;5112804;28;20450;-77
2021/04/07 03:19:52;;;;;;;7.53;3.38;;;;;;;-141.50;100.00;63355.56;5111664;28;20043;-77
2021/04/07 03:22:18;;;;;;;11.73;3.58;;;;;;;-141.50;100.00;63355.56;5077443;28;20494;-77
2021/04/07 03:24:44;;;;;;;8.95;3.58;;;;;;;-141.50;100.00;63355.56;5112810;28;20051;-77
2021/04/07 03:27:10;;;;;;;11.85;3.58;;;;;;;-141.50;100.00;63355.56;5113103;28;20051;-77
2021/04/07 03:29:36;;;;;;;9.38;4.30;;;;;;;-141.50;100.00;63355.56;5112055;28;20051;-77
2021/04/07 03:32:03;;;;;;;9.13;3.70;;;;;;;-141.50;100.00;63355.56;5113998;28;20111;-79
2021/04/07 03:34:32;;;;;;;13.35;4.88;;;;;;;-141.50;100.00;63355.56;5115068;28;20047;-78
2021/04/07 03:36:58;;;;;;;13.30;4.97;;;;;;;-141.50;100.00;63355.56;5100839;28;20043;-77
2021/04/07 03:39:24;;;;;;;11.10;4.60;;;;;;;-141.50;100.00;63355.56;5119896;28;20035;-78
2021/04/07 03:41:50;;;;;;;16.27;5.00;;;;;;;-141.50;100.00;63355.56;5100421;28;20054;-79
2021/04/07 03:44:16;;;;;;;13.23;5.25;;;;;;;-141.50;100.00;63355.56;5121291;28;20043;-77
2021/04/07 03:46:42;;;;;;;17.83;5.35;;;;;;;-141.50;100.00;63355.56;5120619;28;20036;-77
2021/04/07 03:49:08;;;;;;;13.00;5.75;;;;;;;-141.50;100.00;63355.56;5128626;28;20046;-78
2021/04/07 03:51:34;;;;;;;11.32;5.32;;;;;;;-141.50;100.00;63355.56;5095709;28;20525;-77
2021/04/07 03:54:01;;;;;;;11.82;5.22;;;;;;;-141.50;100.00;63355.56;5113143;28;20039;-78
2021/04/07 03:56:31;;;;;;;13.50;5.35;;;;;;;-141.50;100.00;63355.56;5096843;28;20122;-78
2021/04/07 03:58:59;;;;;;;16.08;5.30;;;;;;;-141.50;100.00;63355.56;5097324;28;20046;-78
2021/04/07 04:01:25;;;;;;;14.13;5.75;;;;;;;-141.50;100.00;63355.56;5117839;28;20054;-78
2021/04/07 04:03:51;;;;;;;15.43;6.20;;;;;;;-141.50;100.00;63355.56;5099807;28;20138;-78
2021/04/07 04:06:17;;;;;;;11.25;6.15;;;;;;;-141.50;100.00;63355.56;5116367;28;20039;-78
2021/04/07 04:08:43;;;;;;;17.95;6.05;;;;;;;-141.50;100.00;63355.56;5114525;28;20039;-78
2021/04/07 04:11:09;;;;;;;14.05;5.75;;;;;;;-141.50;100.00;63355.56;5095391;28;20047;-78
2021/04/07 04:13:36;;;;;;;16.60;5.97;;;;;;;-141.50;100.00;63355.56;5114108;28;20050;-78
2021/04/07 04:16:02;;;;;;;13.57;6.47;;;;;;;-141.50;100.00;63355.56;5094591;28;20051;-77
2021/04/07 04:18:28;;;;;;;13.07;6.35;;;;;;;-141.50;100.00;63355.56;5101351;28;20506;-78
2021/04/07 04:20:55;;;;;;;14.73;6.43;;;;;;;-141.50;100.00;63355.56;5120504;28;20054;-79
2021/04/07 04:23:21;;;;;;;14.63;5.78;;;;;;;-141.50;100.00;63355.56;5096410;28;20031;-78
2021/04/07 04:25:47;;;;;;;16.80;5.68;;;;;;;-141.50;100.00;63355.56;5112125;28;20046;-77
2021/04/07 04:28:14;;;;;;;10.82;6.22;;;;;;;-141.50;100.00;63355.56;5112381;28;20036;-78
2021/04/07 04:30:40;;;;;;;13.68;6.25;;;;;;;-141.50;100.00;63355.56;5092933;28;20735;-78
2021/04/07 04:33:06;;;;;;;17.17;6.55;;;;;;;-141.50;100.00;63355.56;5106486;28;20051;-75
2021/04/07 04:35:32;;;;;;;14.10;5.95;;;;;;;-141.50;100.00;63355.56;5106511;28;20402;-77
2021/04/07 04:37:58;;;;;;;15.60;5.88;;;;;;;-141.50;100.00;63355.56;5091007;28;20051;-76
2021/04/07 04:40:24;;;;;;;11.75;6.40;;;;;;;-141.50;100.00;63355.56;5119350;28;20077;-76
2021/04/07 04:42:51;;;;;;;17.48;6.90;;;;;;;-141.50;100.00;63355.56;5097879;28;20560;-77
2021/04/07 04:45:17;;;;;;;17.77;6.90;;;;;;;-141.50;100.00;63355.56;5096570;28;20047;-76
2021/04/07 04:47:44;;;;;;;14.20;7.13;;;;;;;-141.50;100.00;63355.56;5114573;28;20055;-76
2021/04/07 04:50:13;;;;;;;18.48;6.75;;;;;;;-141.50;100.00;63355.56;5116530;28;20047;-76
2021/04/07 04:52:39;;;;;;;16.20;6.78;;;;;;;-141.50;100.00;63355.56;5096291;28;20040;-76
2021/04/07 04:55:08;;;;;;;15.15;6.43;;;;;;;-141.50;100.00;63355.56;5115814;28;20126;-77
2021/04/07 04:57:34;;;;;;;17.10;6.53;;;;;;;-141.50;100.00;63355.56;5118349;28;20051;-76
2021/04/07 05:00:00;;;;;;;15.32;6.70;;;;;;;-141.50;100.00;63355.56;5097103;28;20572;-77
2021/04/07 05:02:26;;;;;;;11.02;6.22;;;;;;;-141.50;100.00;63355.56;5095822;28;20062;-76
2021/04/07 05:04:52;;;;;;;12.32;6.10;;;;;;;-141.50;100.00;63355.56;5095358;28;20052;-75
2021/04/07 05:07:18;;;;;;;16.45;5.80;;;;;;;-141.50;100.00;63355.56;5113638;28;20108;-77
2021/04/07 05:09:44;;;;;;;13.45;6.47;;;;;;;-141.50;100.00;63355.56;5095388;28;20126;-77
2021/04/07 05:12:11;;;;;;;11.35;6.43;;;;;;;-141.50;100.00;63355.56;5096046;28;20464;-76
2021/04/07 05:14:38;;;;;;;13.25;7.07;;;;;;;-141.50;100.00;63355.56;5095476;28;20062;-77
2021/04/07 05:17:04;;;;;;;11.95;6.70;;;;;;;-141.50;100.00;63355.56;5096338;28;20414;-77
2021/04/07 05:19:30;;;;;;;15.85;7.28;;;;;;;-141.50;100.00;63355.56;5096759;28;20048;-77
2021/04/07 05:21:56;;;;;;;20.40;7.95;;;;;;;-141.50;100.00;63355.56;5095634;28;20048;-77
2021/04/07 05:24:22;;;;;;;17.20;7.45;;;;;;;-141.50;100.00;63355.56;5096039;28;20047;-77
2021/04/07 05:26:49;;;;;;;16.23;7.85;;;;;;;-141.50;100.00;63355.56;5116122;28;20456;-76
2021/04/07 05:29:15;;;;;;;16.27;7.55;;;;;;;-141.50;100.00;63355.56;5093966;28;20226;-76
2021/04/07 05:31:41;;;;;;;12.38;7.15;;;;;;;-141.50;100.00;63355.56;5075489;28;20054;-77
2021/04/07 05:34:07;;;;;;;19.55;7.80;;;;;;;-141.50;100.00;63355.56;5105112;28;20143;-77
2021/04/07 05:36:33;;;;;;;17.20;7.50;;;;;;;-141.50;100.00;63355.56;5114403;28;20044;-76
2021/04/07 05:38:59;;;;;;;17.10;7.68;;;;;;;-141.50;100.00;63355.56;5114000;28;20047;-76
2021/04/07 05:41:25;;;;;;;14.90;6.07;;;;;;;-141.50;100.00;63355.56;5113745;28;20159;-77
2021/04/07 05:43:51;;;;;;;16.23;7.07;;;;;;;-141.50;100.00;63355.56;5113342;28;20495;-76
2021/04/07 05:46:17;;;;;;;13.25;5.75;;;;;;;-141.50;100.00;63355.56;5094946;28;20050;-76
2021/04/07 05:48:44;;;;;;;12.55;6.30;;;;;;;-141.50;100.00;63355.56;5113107;28;20613;-77
2021/04/07 05:51:11;;;;;;;13.30;6.03;;;;;;;-141.50;100.00;63355.56;5095748;28;20056;-77
2021/04/07 05:53:38;;;;;;;12.48;5.95;;;;;;;-141.50;100.00;63355.56;5092160;28;20055;-77
2021/04/07 05:56:24;;;;;;;11.95;6.38;;;;;;;-141.50;100.00;63355.56;5110208;28;20054;-77
2021/04/07 05:58:51;;;;;;;12.93;6.30;;;;;;;-141.50;100.00;63355.56;5091882;28;20044;-77
2021/04/07 06:01:17;;;;;;;11.23;5.38;;;;;;;-141.50;100.00;63355.56;5110914;28;20047;-76
2021/04/07 06:03:43;;;;;;;10.65;4.88;;;;;;;-141.50;100.00;63355.56;5093326;28;20051;-76
2021/04/07 06:06:10;;;;;;;11.38;5.40;;;;;;;-141.50;100.00;63355.56;5093981;28;20143;-76
2021/04/07 06:08:36;;;;;;;11.07;5.05;;;;;;;-141.50;100.00;63355.56;5111193;28;20499;-76
2021/04/07 06:11:03;;;;;;;10.30;5.57;;;;;;;-141.50;100.00;63355.56;5115181;28;20043;-76
2021/04/07 06:13:29;;;;;;;11.80;5.53;;;;;;;-141.50;100.00;63355.56;5091997;28;20059;-76
2021/04/07 06:15:55;;;;;;;12.13;5.32;;;;;;;-141.50;100.00;63355.56;5109109;28;20061;-75
2021/04/07 06:18:21;;;;;;;13.00;5.72;;;;;;;-141.50;100.00;63355.56;5110207;28;20101;-76
2021/04/07 06:20:49;;;;;;;10.57;5.43;;;;;;;-141.50;100.00;63355.56;5092198;28;20055;-76
2021/04/07 06:23:17;;;;;;;11.23;5.38;;;;;;;-141.50;100.00;63355.56;5109146;28;20418;-77
2021/04/07 06:25:44;;;;;;;12.10;5.40;;;;;;;-141.50;100.00;63355.56;5090893;28;20505;-77
2021/04/07 06:28:11;;;;;;;16.00;5.93;;;;;;;-141.50;100.00;63355.56;5109566;28;20071;-77
2021/04/07 06:30:41;;;;;;;13.90;5.60;;;;;;;-141.50;100.00;63355.56;5110109;28;20044;-75
2021/04/07 06:33:11;;;;;;;11.32;4.78;;;;;;;-141.50;100.00;63355.56;5091091;28;20136;-76
2021/04/07 06:35:38;;;;;;;9.98;4.90;;;;;;;-141.50;100.00;63355.56;5091565;28;20138;-75
2021/04/07 06:38:04;;;;;;;11.98;4.90;;;;;;;-141.50;100.00;63355.56;5091127;28;20050;-76
2021/04/07 06:40:31;;;;;;;8.38;4.63;;;;;;;-141.50;100.00;63355.56;5116358;22;20066;-79
2021/04/07 06:42:59;;;;;;;11.30;4.60;;;;;;;-141.50;100.00;63355.56;5073727;28;20048;-79
2021/04/07 06:45:27;;;;;;;11.00;4.20;;;;;;;-141.50;100.00;63355.56;5074343;28;20450;-80
2021/04/07 06:47:53;;;;;;;14.68;5.45;;;;;;;-141.50;100.00;63355.56;5086697;28;20051;-79
2021/04/07 06:50:21;;;;;;;19.33;4.72;;;;;;;-141.50;100.00;63355.56;5072742;28;20492;-79
2021/04/07 06:52:51;;;;;;;10.63;4.25;;;;;;;-141.50;100.00;63355.56;5071293;28;20044;-80
2021/04/07 06:55:18;;;;;;;11.75;4.20;;;;;;;-141.50;100.00;63355.56;5088799;28;20499;-79
2021/04/07 06:57:45;;;;;;;13.43;4.20;;;;;;;-141.50;100.00;63355.56;5090634;28;20039;-80
2021/04/07 07:00:12;;;;;;;13.40;4.00;;;;;;;-141.50;100.00;63355.56;5072399;28;20040;-80
2021/04/07 07:02:39;;;;;;;11.55;3.88;;;;;;;-141.50;100.00;63355.56;5055845;28;20052;-79
2021/04/07 07:05:07;;;;;;;8.63;3.65;;;;;;;-141.50;100.00;63355.56;5071262;28;20055;-79
2021/04/07 07:07:33;;;;;;;10.38;4.28;;;;;;;-141.50;100.00;63355.56;5084924;28;20048;-79
2021/04/07 07:09:59;;;;;;;7.78;4.43;;;;;;;-141.50;100.00;63355.56;5051126;28;20044;-80
2021/04/07 07:12:26;;;;;;;12.15;4.22;;;;;;;-141.50;100.00;63355.56;5051225;28;20058;-79
2021/04/07 07:14:52;;;;;;;8.07;3.65;;;;;;;-141.50;100.00;63355.56;5051398;28;20117;-80
2021/04/07 07:17:32;;;;;;;9.63;3.83;;;;;;;-141.50;100.00;63355.56;5080453;28;20048;-79
2021/04/07 07:19:58;;;;;;;11.85;3.92;;;;;;;-141.50;100.00;63355.56;5071454;28;20055;-81
2021/04/07 07:22:26;;;;;;;10.20;3.60;;;;;;;-141.50;100.00;63355.56;5072785;28;20052;-80
2021/04/07 07:24:58;;;;;;;10.20;3.78;;;;;;;-141.50;100.00;63355.56;5072012;28;20051;-79
2021/04/07 07:27:44;;;;;;;8.57;3.72;;;;;;;-141.50;100.00;63355.56;5084546;28;20119;-80
2021/04/07 07:30:12;;;;;;;9.00;3.63;;;;;;;-141.50;100.00;63355.56;5070070;28;20048;-79
2021/04/07 07:32:41;;;;;;;9.18;3.83;;;;;;;-141.50;100.00;63355.56;5035272;28;20089;-80
2021/04/07 07:35:12;;;;;;;9.10;3.85;;;;;;;-141.50;100.00;63355.56;5051676;28;20147;-80
2021/04/07 07:37:40;;;;;;;9.95;3.58;;;;;;;-141.50;100.00;63355.56;5068555;28;20048;-80
2021/04/07 07:40:21;;;;;;;13.18;4.15;;;;;;;-141.50;100.00;63355.56;5069264;28;20049;-80
2021/04/07 07:42:48;;;;;;;11.05;3.63;;;;;;;-141.50;100.00;63355.56;5034601;28;20411;-79
2021/04/07 07:45:24;;;;;;;9.38;3.65;;;;;;;-141.50;100.00;63355.56;5068507;28;20052;-79
2021/04/07 07:48:01;;;;;;;15.27;3.17;;;;;;;-141.50;100.00;63355.56;5052114;28;20732;-80
2021/04/07 07:50:39;;;;;;;7.90;3.28;;;;;;;-141.50;100.00;63355.56;5052543;28;20089;-80
2021/04/07 07:53:15;;;;;;;12.77;3.55;;;;;;;-141.50;100.00;63355.56;5076395;28;20059;-78
2021/04/07 07:55:42;;;;;;;12.35;3.08;;;;;;;-141.50;100.00;63355.56;5050752;28;20140;-80
2021/04/07 07:58:09;;;;;;;11.27;3.25;;;;;;;-141.50;100.00;63355.56;5049657;28;20044;-78
2021/04/07 08:00:35;;;;;;;11.93;3.30;;;;;;;-141.50;100.00;63355.56;5049998;28;20040;-78
2021/04/07 08:03:08;;;;;;;12.65;3.17;;;;;;;-141.50;100.00;63355.56;5068012;28;20117;-79
2021/04/07 08:05:35;;;;;;;9.25;2.72;;;;;;;-141.50;100.00;63355.56;5050205;28;20052;-79
2021/04/07 08:08:03;;;;;;;10.75;2.88;;;;;;;-141.50;100.00;63355.56;5050964;28;20480;-79
2021/04/07 08:10:29;;;;;;;11.00;2.88;;;;;;;-141.50;100.00;63355.56;5051464;28;20044;-80
2021/04/07 08:12:57;;;;;;;8.73;3.20;;;;;;;-141.50;100.00;63355.56;5051371;28;20056;-78
2021/04/07 08:15:24;;;;;;;7.90;2.50;;;;;;;-141.50;100.00;63355.56;5049910;28;20040;-78
2021/04/07 08:17:50;;;;;;;6.95;1.88;;;;;;;-141.50;100.00;63355.56;5056064;28;20048;-79
2021/04/07 08:20:17;;;;;;;7.05;2.75;;;;;;;-141.50;100.00;63355.56;5069451;28;20545;-78
2021/04/07 08:22:44;;;;;;;7.82;2.70;;;;;;;-141.50;100.00;63355.56;5055875;28;20049;-79
2021/04/07 08:25:13;;;;;;;10.48;2.78;;;;;;;-141.50;100.00;63355.56;5071021;28;20056;-79
2021/04/07 08:27:41;;;;;;;6.43;2.65;;;;;;;-141.50;100.00;63355.56;5080407;28;20046;-79
2021/04/07 08:30:08;;;;;;;7.00;2.28;;;;;;;-141.50;100.00;63355.56;5050978;28;20139;-77
2021/04/07 08:32:36;;;;;;;9.75;2.10;;;;;;;-141.50;100.00;63355.56;5052024;28;20322;-78
2021/04/07 08:35:06;;;;;;;7.03;1.67;;;;;;;-141.50;100.00;63355.56;5070646;28;20549;-77
2021/04/07 08:37:33;;;;;;;14.82;2.05;;;;;;;-141.50;100.00;63355.56;5051960;28;20052;-78
2021/04/07 08:40:14;;;;;;;7.80;1.88;;;;;;;-141.50;100.00;63355.56;5050782;28;20048;-77
2021/04/07 08:42:41;;;;;;;10.82;1.88;;;;;;;-141.50;100.00;63355.56;5050671;28;20060;-77
2021/04/07 08:45:10;;;;;;;13.10;2.13;;;;;;;-141.50;100.00;63355.56;5056304;28;20464;-78
2021/04/07 08:47:44;;;;;;;8.10;1.67;;;;;;;-141.50;100.00;63355.56;5070886;28;20041;-78
2021/04/07 08:50:14;;;;;;;12.05;1.67;;;;;;;-141.50;100.00;63355.56;5052651;28;20114;-78
2021/04/07 08:52:49;;;;;;;12.93;2.00;;;;;;;-141.50;100.00;63355.56;5048799;28;20212;-77
2021/04/07 08:55:18;;;;;;;13.95;2.30;;;;;;;-141.50;100.00;63355.56;5030629;28;20057;-77
2021/04/07 08:57:58;;;;;;;9.55;1.52;;;;;;;-141.50;100.00;63355.56;5068510;28;20048;-78
2021/04/07 09:00:29;;;;;;;9.82;1.90;;;;;;;-141.50;100.00;63355.56;5033887;28;20068;-78
2021/04/07 09:02:57;;;;;;;13.25;1.77;;;;;;;-141.50;100.00;63355.56;5065843;28;20037;-77
2021/04/07 09:05:38;;;;;;;8.32;1.48;;;;;;;-141.50;100.00;63355.56;5031674;28;20049;-78
2021/04/07 09:08:08;;;;;;;11.30;1.95;;;;;;;-141.50;100.00;63355.56;5064150;28;20265;-78
2021/04/07 09:10:45;;;;;;;14.85;2.05;;;;;;;-141.50;100.00;63355.56;5066317;28;20114;-77
2021/04/07 09:13:14;;;;;;;10.20;2.25;;;;;;;-141.50;100.00;63355.56;5047021;28;20564;-77
2021/04/07 09:16:00;;;;;;;14.35;2.00;;;;;;;-141.50;100.00;63355.56;5064947;28;20059;-78
2021/04/07 09:18:32;;;;;;;8.07;1.95;;;;;;;-141.50;100.00;63355.56;5073769;28;20040;-78
2021/04/07 09:21:00;;;;;;;10.02;2.05;;;;;;;-141.50;100.00;63355.56;5067372;28;20047;-77
2021/04/07 09:23:33;;;;;;;8.27;1.73;;;;;;;-141.50;100.00;63355.56;5067524;28;20046;-77
2021/04/07 09:26:14;;;;;;;10.93;2.05;;;;;;;-141.50;100.00;63355.56;5050228;28;20472;-78
2021/04/07 09:28:42;;;;;;;10.30;1.83;;;;;;;-141.50;100.00;63355.56;5053273;28;20076;-78
2021/04/07 09:31:10;;;;;;;10.63;2.13;;;;;;;-141.50;100.00;63355.56;5050822;28;20048;-77
2021/04/07 09:33:41;;;;;;;10.63;2.03;;;;;;;-141.50;100.00;63355.56;5068682;28;20044;-77
2021/04/07 09:36:07;;;;;;;11.25;1.83;;;;;;;-141.50;100.00;63355.56;5050493;28;20060;-77
2021/04/07 09:38:50;;;;;;;11.38;2.13;;;;;;;-141.50;100.00;63355.56;5049713;28;20139;-77
2021/04/07 09:41:25;;;;;;;9.65;1.90;;;;;;;-141.50;100.00;63355.56;5067122;28;20265;-77
2021/04/07 09:43:52;;;;;;;14.98;2.30;;;;;;;-141.50;100.00;63355.56;5050566;28;20056;-77
2021/04/07 09:46:19;;;;;;;11.10;2.42;;;;;;;-141.50;100.00;63355.56;5050496;28;20056;-77
2021/04/07 09:48:46;;;;;;;13.63;2.10;;;;;;;-141.50;100.00;63355.56;5049971;28;20064;-77
2021/04/07 09:51:31;;;;;;;10.75;2.45;;;;;;;-141.50;100.00;63355.56;5068549;28;20047;-77
2021/04/07 09:54:09;;;;;;;10.48;2.20;;;;;;;-141.50;100.00;63355.56;5067128;28;20076;-77
2021/04/07 09:56:48;;;;;;;12.48;1.80;;;;;;;-141.50;100.00;63355.56;5069389;28;20127;-78
2021/04/07 09:59:16;;;;;;;6.40;1.83;;;;;;;-141.50;100.00;63355.56;5049703;28;20482;-78
2021/04/07 10:01:42;;;;;;;8.85;2.15;;;;;;;-141.50;100.00;63355.56;5050969;28;20060;-77
2021/04/07 10:04:09;;;;;;;9.82;1.85;;;;;;;-141.50;100.00;63355.56;5068355;28;20123;-77
2021/04/07 10:06:38;;;;;;;10.32;2.15;;;;;;;-141.50;100.00;63355.56;5068986;28;20048;-76
2021/04/07 10:09:08;;;;;;;13.55;2.25;;;;;;;-141.50;100.00;63355.56;5034033;28;20060;-77
2021/04/07 10:11:42;;;;;;;7.97;2.03;;;;;;;-141.50;100.00;63355.56;5050524;28;20094;-78
2021/04/07 10:14:09;;;;;;;5.90;1.88;;;;;;;-141.50;100.00;63355.56;5051136;28;20056;-79
2021/04/07 10:16:39;;;;;;;9.18;2.40;;;;;;;-141.50;100.00;63355.56;5071201;28;20055;-78
2021/04/07 10:19:10;;;;;;;9.38;2.10;;;;;;;-141.50;100.00;63355.56;5070170;28;20044;-78
2021/04/07 10:21:38;;;;;;;5.35;1.90;;;;;;;-141.50;100.00;63355.56;5035634;28;20059;-78
2021/04/07 10:24:05;;;;;;;6.97;2.10;;;;;;;-141.50;100.00;63355.56;5070136;28;20096;-78
2021/04/07 10:26:33;;;;;;;7.70;1.80;;;;;;;-141.50;100.00;63355.56;5052393;28;20059;-79
2021/04/07 10:29:03;;;;;;;10.35;1.80;;;;;;;-141.50;100.00;63355.56;5075722;28;20601;-79
2021/04/07 10:31:30;;;;;;;14.13;1.90;;;;;;;-141.50;100.00;63355.56;5052043;28;20052;-78
2021/04/07 10:34:07;;;;;;;9.23;1.98;;;;;;;-141.50;100.00;63355.56;5069450;28;20415;-76
2021/04/07 10:36:36;;;;;;;9.55;2.00;;;;;;;-141.50;100.00;63355.56;5050926;28;20056;-78
2021/04/07 10:39:20;;;;;;;7.57;2.00;;;;;;;-141.50;100.00;63355.56;5050640;28;20064;-78
2021/04/07 10:41:53;;;;;;;6.35;1.92;;;;;;;-141.50;100.00;63355.56;5070115;28;20040;-79
2021/04/07 10:44:28;;;;;;;7.65;2.10;;;;;;;-141.50;100.00;63355.56;5052708;28;20128;-79
2021/04/07 10:46:55;;;;;;;7.28;2.00;;;;;;;-141.50;100.00;63355.56;5061014;28;20043;-79
2021/04/07 10:49:23;;;;;;;5.88;1.60;;;;;;;-141.50;100.00;63355.56;5069488;28;20126;-79
2021/04/07 10:52:07;;;;;;;5.10;1.80;;;;;;;-141.50;100.00;63355.56;5052046;28;20056;-78
2021/04/07 10:54:33;;;;;;;5.53;1.75;;;;;;;-141.50;100.00;63355.56;5052579;28;20044;-79
2021/04/07 10:57:06;;;;;;;10.68;2.00;;;;;;;-141.50;100.00;63355.56;5064010;28;20081;-78
2021/04/07 10:59:34;;;;;;;6.68;1.45;;;;;;;-141.50;100.00;63355.56;5097740;28;20044;-79
2021/04/07 11:02:12;;;;;;;6.53;1.30;;;;;;;-141.50;100.00;63355.56;5073438;28;20048;-78
2021/04/07 11:04:39;;;;;;;6.63;1.52;;;;;;;-141.50;100.00;63355.56;5071580;28;20048;-78
2021/04/07 11:07:06;;;;;;;4.35;1.73;;;;;;;-141.50;100.00;63355.56;5071084;28;20061;-78
2021/04/07 11:09:35;;;;;;;9.10;2.03;;;;;;;-141.50;100.00;63355.56;5074520;28;20439;-78